createdAt,value
2022-12-29T00:01:29.497Z,5.85
2022-12-29T00:03:59.271Z,5.81
2022-12-29T00:06:27.310Z,5.80
2022-12-29T00:08:58.566Z,5.78
2022-12-29T00:11:28.450Z,5.79
2022-12-29T00:14:20.287Z,5.76
2022-12-29T00:16:52.434Z,5.71
2022-12-29T00:19:39.751Z,5.77
2022-12-29T00:22:25.960Z,5.70
2022-12-29T00:25:13.675Z,5.64
2022-12-29T00:28:06.365Z,5.68
2022-12-29T00:30:57.063Z,5.65
2022-12-29T00:33:48.605Z,5.64
2022-12-29T00:36:24.879Z,5.63
2022-12-29T00:39:15.480Z,5.64
2022-12-29T00:42:03.274Z,5.60
2022-12-29T00:44:31.442Z,5.59
2022-12-29T00:47:03.753Z,5.57
2022-12-29T00:49:34.270Z,5.57
2022-12-29T00:52:05.795Z,5.58
2022-12-29T00:54:35.468Z,5.57
2022-12-29T00:57:08.087Z,5.58
2022-12-29T00:59:37.456Z,5.55
2022-12-29T01:02:07.053Z,5.56
2022-12-29T01:04:36.118Z,5.56
2022-12-29T01:07:04.898Z,5.52
2022-12-29T01:09:51.995Z,5.36
2022-12-29T01:12:41.557Z,5.51
2022-12-29T01:15:12.592Z,5.48
2022-12-29T01:17:41.339Z,5.46
2022-12-29T01:20:10.958Z,5.42
2022-12-29T01:22:40.021Z,5.44
2022-12-29T01:25:09.409Z,5.44
2022-12-29T01:27:41.193Z,5.42
2022-12-29T01:30:10.494Z,5.42
2022-12-29T01:32:39.045Z,5.41
2022-12-29T01:35:07.806Z,5.43
2022-12-29T01:37:36.159Z,5.41
2022-12-29T01:40:05.552Z,5.40
2022-12-29T01:42:33.976Z,5.39
2022-12-29T01:45:05.931Z,5.38
2022-12-29T01:47:39.693Z,5.39
2022-12-29T01:50:12.818Z,5.37
2022-12-29T01:52:45.265Z,5.40
2022-12-29T01:55:16.292Z,5.36
2022-12-29T01:57:51.187Z,5.38
2022-12-29T02:00:22.059Z,5.38
2022-12-29T02:02:54.175Z,5.38
2022-12-29T02:05:30.075Z,5.35
2022-12-29T02:07:59.037Z,5.35
2022-12-29T02:10:30.566Z,5.34
2022-12-29T02:12:59.532Z,5.36
2022-12-29T02:15:44.025Z,5.32
2022-12-29T02:18:27.731Z,5.34
2022-12-29T02:21:35.866Z,5.19
2022-12-29T02:24:29.522Z,5.35
2022-12-29T02:27:37.703Z,5.31
2022-12-29T02:30:17.832Z,5.25
2022-12-29T02:32:56.524Z,5.32
2022-12-29T02:35:33.030Z,5.33
2022-12-29T02:38:15.874Z,5.32
2022-12-29T02:40:50.713Z,5.02
2022-12-29T02:43:27.988Z,5.24
2022-12-29T02:46:01.003Z,5.02
2022-12-29T02:48:35.276Z,5.19
2022-12-29T02:51:07.382Z,5.17
2022-12-29T02:54:07.117Z,5.15
2022-12-29T02:56:36.827Z,5.20
2022-12-29T02:59:06.720Z,5.19
2022-12-29T03:02:11.409Z,5.17
2022-12-29T03:04:53.470Z,5.11
2022-12-29T03:07:26.924Z,5.07
2022-12-29T03:10:03.594Z,4.87
2022-12-29T03:12:52.109Z,4.97
2022-12-29T03:15:42.259Z,5.00
2022-12-29T03:18:18.293Z,5.02
2022-12-29T03:20:53.875Z,5.05
2022-12-29T03:23:26.312Z,5.08
2022-12-29T03:26:00.576Z,5.06
2022-12-29T03:28:36.104Z,5.05
2022-12-29T03:31:51.183Z,5.07
2022-12-29T03:34:22.950Z,5.04
2022-12-29T03:36:56.056Z,5.02
2022-12-29T03:39:28.949Z,4.72
2022-12-29T03:42:02.016Z,5.00
2022-12-29T03:44:35.739Z,4.98
2022-12-29T03:47:03.912Z,4.95
2022-12-29T03:49:34.307Z,4.90
2022-12-29T03:52:05.033Z,4.92
2022-12-29T03:54:34.068Z,4.93
2022-12-29T03:57:03.621Z,4.96
2022-12-29T03:59:32.046Z,5.04
2022-12-29T04:02:00.603Z,5.01
2022-12-29T04:04:29.468Z,5.09
2022-12-29T04:06:57.917Z,5.09
2022-12-29T04:09:30.998Z,5.10
2022-12-29T04:11:59.336Z,5.13
2022-12-29T04:14:27.739Z,5.09
2022-12-29T04:16:56.207Z,5.06
2022-12-29T04:19:24.730Z,5.02
2022-12-29T04:21:53.190Z,5.06
2022-12-29T04:24:21.634Z,5.08
2022-12-29T04:26:52.543Z,5.05
2022-12-29T04:29:21.019Z,5.05
2022-12-29T04:31:49.535Z,5.05
2022-12-29T04:34:18.182Z,5.06
2022-12-29T04:36:46.609Z,5.07
2022-12-29T04:39:17.828Z,5.09
2022-12-29T04:41:46.151Z,5.10
2022-12-29T04:44:16.516Z,5.09
2022-12-29T04:46:47.751Z,5.10
2022-12-29T04:49:16.702Z,5.10
2022-12-29T04:51:46.512Z,5.13
2022-12-29T04:54:15.088Z,5.13
2022-12-29T04:56:43.395Z,5.15
2022-12-29T04:59:11.992Z,5.16
2022-12-29T05:01:41.659Z,5.15
2022-12-29T05:04:10.152Z,5.15
2022-12-29T05:06:38.819Z,5.20
2022-12-29T05:09:08.559Z,5.25
2022-12-29T05:11:36.789Z,5.28
2022-12-29T05:14:06.878Z,5.26
2022-12-29T05:16:35.760Z,5.29
2022-12-29T05:19:07.312Z,5.27
2022-12-29T05:21:35.826Z,5.27
2022-12-29T05:24:06.319Z,5.27
2022-12-29T05:26:34.411Z,5.25
2022-12-29T05:29:09.142Z,5.10
2022-12-29T05:31:37.686Z,5.09
2022-12-29T05:34:09.431Z,5.05
2022-12-29T05:36:38.315Z,5.04
2022-12-29T05:39:08.900Z,5.06
2022-12-29T05:41:37.293Z,5.08
2022-12-29T05:44:06.103Z,5.12
2022-12-29T05:46:34.528Z,5.13
2022-12-29T05:49:04.081Z,5.13
2022-12-29T05:51:34.871Z,5.16
2022-12-29T05:54:03.249Z,5.16
2022-12-29T05:56:31.497Z,5.18
2022-12-29T05:58:59.905Z,5.22
2022-12-29T06:01:28.541Z,5.21
2022-12-29T06:03:57.023Z,5.20
2022-12-29T06:06:25.884Z,5.22
2022-12-29T06:08:55.730Z,5.23
2022-12-29T06:11:24.081Z,5.25
2022-12-29T06:13:52.536Z,5.20
2022-12-29T06:16:21.540Z,5.17
2022-12-29T06:18:50.035Z,5.10
2022-12-29T06:21:18.691Z,5.04
2022-12-29T06:23:47.684Z,5.19
2022-12-29T06:26:17.192Z,5.16
2022-12-29T06:28:47.203Z,5.19
2022-12-29T06:31:15.478Z,5.19
2022-12-29T06:33:48.266Z,5.17
2022-12-29T06:36:18.094Z,5.17
2022-12-29T06:38:46.606Z,5.21
2022-12-29T06:41:15.298Z,5.20
2022-12-29T06:43:45.224Z,5.26
2022-12-29T06:46:13.429Z,5.30
2022-12-29T06:48:43.630Z,5.32
2022-12-29T06:51:11.932Z,5.35
2022-12-29T06:53:42.458Z,5.34
2022-12-29T06:56:10.584Z,5.34
2022-12-29T06:58:40.773Z,5.36
2022-12-29T07:01:10.797Z,5.38
2022-12-29T07:03:39.862Z,5.29
2022-12-29T07:06:08.918Z,5.44
2022-12-29T07:08:39.507Z,5.43
2022-12-29T07:11:08.887Z,5.45
2022-12-29T07:13:37.598Z,5.45
2022-12-29T07:16:11.884Z,5.45
2022-12-29T07:18:40.364Z,5.50
2022-12-29T07:21:08.558Z,5.26
2022-12-29T07:23:37.656Z,5.59
2022-12-29T07:26:08.210Z,5.63
2022-12-29T07:28:39.645Z,5.70
2022-12-29T07:31:08.783Z,5.70
2022-12-29T07:33:38.330Z,5.78
2022-12-29T07:36:07.713Z,5.80
2022-12-29T07:38:36.088Z,5.84
2022-12-29T07:41:04.202Z,5.87
2022-12-29T07:43:33.587Z,5.89
2022-12-29T07:46:02.130Z,5.89
2022-12-29T07:48:30.544Z,5.91
2022-12-29T07:51:03.093Z,5.94
2022-12-29T07:53:31.452Z,5.95
2022-12-29T07:55:59.597Z,5.94
2022-12-29T07:58:28.909Z,5.99
2022-12-29T08:00:57.192Z,6.02
2022-12-29T08:03:26.486Z,6.03
2022-12-29T08:05:56.928Z,6.08
2022-12-29T08:08:26.879Z,6.07
2022-12-29T08:10:56.470Z,6.05
2022-12-29T08:13:25.168Z,6.27
2022-12-29T08:15:53.305Z,6.33
2022-12-29T08:18:23.402Z,6.36
2022-12-29T08:20:55.545Z,6.42
2022-12-29T08:23:25.742Z,6.40
2022-12-29T08:26:00.886Z,6.36
2022-12-29T08:28:30.333Z,6.12
2022-12-29T08:31:00.356Z,6.27
2022-12-29T08:33:29.477Z,6.26
2022-12-29T08:36:02.270Z,6.25
2022-12-29T08:38:32.062Z,6.10
2022-12-29T08:41:03.056Z,6.26
2022-12-29T08:43:34.106Z,6.28
2022-12-29T08:46:02.902Z,6.32
2022-12-29T08:48:31.395Z,6.37
2022-12-29T08:51:00.392Z,6.36
2022-12-29T08:53:29.030Z,6.43
2022-12-29T08:56:05.041Z,6.44
2022-12-29T08:58:35.525Z,6.48
2022-12-29T09:01:04.459Z,6.54
2022-12-29T09:06:21.880Z,6.67
2022-12-29T09:08:52.334Z,6.55
2022-12-29T09:11:23.043Z,6.76
2022-12-29T09:13:53.736Z,6.72
2022-12-29T09:16:24.674Z,6.85
2022-12-29T09:18:53.209Z,6.88
2022-12-29T09:21:21.475Z,6.80
2022-12-29T09:23:53.140Z,6.91
2022-12-29T09:26:21.344Z,6.96
2022-12-29T09:28:54.179Z,6.99
2022-12-29T09:31:23.234Z,7.11
2022-12-29T09:33:51.498Z,7.14
2022-12-29T09:36:21.347Z,7.18
2022-12-29T09:38:50.752Z,7.19
2022-12-29T09:41:26.527Z,7.27
2022-12-29T09:44:07.365Z,7.34
2022-12-29T09:46:42.703Z,7.37
2022-12-29T09:49:25.432Z,7.38
2022-12-29T09:51:58.154Z,7.43
2022-12-29T09:54:40.883Z,7.36
2022-12-29T09:57:18.711Z,7.32
2022-12-29T09:59:50.781Z,7.37
2022-12-29T10:02:32.972Z,7.45
2022-12-29T10:05:02.767Z,7.29
2022-12-29T10:07:41.530Z,7.54
2022-12-29T10:10:27.634Z,7.61
2022-12-29T10:13:30.202Z,7.63
2022-12-29T10:16:11.804Z,7.71
2022-12-29T10:19:09.678Z,7.77
2022-12-29T10:21:54.872Z,7.78
2022-12-29T10:24:24.525Z,7.79
2022-12-29T10:26:55.421Z,7.78
2022-12-29T10:29:29.030Z,7.99
2022-12-29T10:32:01.572Z,7.91
2022-12-29T10:34:35.542Z,7.80
2022-12-29T10:37:11.201Z,7.81
2022-12-29T10:39:45.772Z,8.10
2022-12-29T10:42:29.149Z,8.36
2022-12-29T10:45:00.168Z,8.61
2022-12-29T10:47:33.698Z,8.66
2022-12-29T10:50:03.354Z,8.76
2022-12-29T10:52:35.521Z,8.84
2022-12-29T10:55:11.904Z,8.84
2022-12-29T10:57:45.172Z,8.84
2022-12-29T11:00:18.011Z,8.93
2022-12-29T11:03:10.707Z,8.94
2022-12-29T11:05:46.608Z,8.87
2022-12-29T11:08:19.420Z,8.83
2022-12-29T11:10:50.368Z,8.64
2022-12-29T11:13:22.057Z,8.65
2022-12-29T11:15:52.945Z,8.57
2022-12-29T11:18:25.426Z,8.48
2022-12-29T11:20:57.571Z,8.46
2022-12-29T11:23:35.206Z,8.51
2022-12-29T11:26:17.927Z,8.55
2022-12-29T11:28:48.222Z,8.57
2022-12-29T11:31:20.792Z,8.62
2022-12-29T11:33:51.833Z,8.63
2022-12-29T11:36:24.625Z,8.75
2022-12-29T11:38:56.974Z,8.84
2022-12-29T11:41:28.172Z,8.83
2022-12-29T11:44:01.725Z,8.69
2022-12-29T11:46:37.233Z,8.57
2022-12-29T11:49:09.153Z,8.55
2022-12-29T11:51:45.303Z,8.67
2022-12-29T11:54:21.612Z,8.71
2022-12-29T11:56:54.760Z,8.67
2022-12-29T11:59:44.761Z,8.47
2022-12-29T12:02:42.059Z,8.44
2022-12-29T12:05:21.464Z,8.38
2022-12-29T12:07:57.554Z,8.37
2022-12-29T12:10:30.621Z,8.35
2022-12-29T12:13:08.088Z,8.37
2022-12-29T12:15:46.708Z,8.24
2022-12-29T12:18:26.488Z,8.30
2022-12-29T12:20:59.600Z,8.27
2022-12-29T12:23:39.184Z,8.21
2022-12-29T12:26:15.040Z,8.22
2022-12-29T12:28:53.051Z,8.19
2022-12-29T12:31:39.425Z,8.17
2022-12-29T12:34:16.375Z,8.13
2022-12-29T12:37:04.982Z,8.15
2022-12-29T12:39:43.547Z,8.12
2022-12-29T12:42:28.980Z,8.15
2022-12-29T12:45:23.722Z,8.12
2022-12-29T12:48:06.786Z,8.21
2022-12-29T12:50:48.280Z,8.27
2022-12-29T12:53:32.658Z,8.30
2022-12-29T12:56:29.593Z,8.28
2022-12-29T12:59:10.214Z,8.28
2022-12-29T13:01:44.790Z,8.26
2022-12-29T13:04:41.884Z,8.15
2022-12-29T13:07:22.127Z,8.20
2022-12-29T13:10:10.123Z,8.14
2022-12-29T13:12:49.873Z,8.14
2022-12-29T13:15:34.213Z,8.06
2022-12-29T13:18:12.581Z,8.04
2022-12-29T13:20:50.123Z,8.02
2022-12-29T13:23:28.333Z,8.01
2022-12-29T13:26:15.833Z,8.09
2022-12-29T13:28:58.642Z,8.20
2022-12-29T13:31:36.295Z,8.22
2022-12-29T13:34:14.984Z,7.97
2022-12-29T13:36:47.785Z,8.18
2022-12-29T13:39:21.476Z,8.13
2022-12-29T13:41:54.579Z,8.12
2022-12-29T13:44:33.174Z,8.08
2022-12-29T13:47:09.753Z,8.10
2022-12-29T13:49:38.356Z,8.00
2022-12-29T13:52:18.288Z,7.91
2022-12-29T13:54:58.124Z,7.87
2022-12-29T13:57:42.577Z,7.85
2022-12-29T14:00:17.274Z,7.74
2022-12-29T14:03:06.874Z,7.62
2022-12-29T14:05:36.729Z,7.56
2022-12-29T14:08:08.333Z,7.54
2022-12-29T14:10:39.355Z,7.53
2022-12-29T14:13:16.430Z,7.40
2022-12-29T14:15:46.272Z,7.34
2022-12-29T14:18:19.829Z,7.52
2022-12-29T14:20:59.857Z,7.47
2022-12-29T14:23:32.329Z,7.47
2022-12-29T14:26:12.552Z,7.11
2022-12-29T14:28:44.596Z,7.16
2022-12-29T14:31:35.978Z,6.98
2022-12-29T14:34:32.105Z,6.86
2022-12-29T14:37:02.743Z,6.77
2022-12-29T14:39:37.113Z,6.65
2022-12-29T14:42:14.073Z,6.62
2022-12-29T14:44:52.537Z,6.38
2022-12-29T14:47:24.781Z,6.45
2022-12-29T14:49:56.914Z,6.57
2022-12-29T14:52:28.147Z,6.54
2022-12-29T14:55:01.790Z,6.49
2022-12-29T14:57:38.233Z,6.47
2022-12-29T15:00:18.006Z,6.44
2022-12-29T15:02:50.844Z,6.63
2022-12-29T15:05:32.594Z,6.60
2022-12-29T15:08:02.532Z,6.82
2022-12-29T15:10:39.856Z,6.83
2022-12-29T15:13:20.126Z,6.81
2022-12-29T15:15:49.919Z,6.69
2022-12-29T15:18:27.140Z,6.59
2022-12-29T15:20:58.447Z,6.53
2022-12-29T15:23:27.701Z,6.45
2022-12-29T15:25:57.960Z,6.59
2022-12-29T15:28:28.207Z,6.50
2022-12-29T15:31:06.251Z,6.44
2022-12-29T15:33:41.870Z,6.46
2022-12-29T15:36:13.737Z,6.50
2022-12-29T15:38:42.416Z,6.55
2022-12-29T15:41:27.211Z,6.63
2022-12-29T15:44:04.566Z,6.60
2022-12-29T15:46:34.709Z,6.62
2022-12-29T15:49:08.859Z,6.61
2022-12-29T15:51:39.561Z,6.54
2022-12-29T15:54:15.360Z,6.61
2022-12-29T15:56:44.635Z,6.60
2022-12-29T15:59:26.806Z,6.52
2022-12-29T16:01:57.873Z,6.40
2022-12-29T16:04:29.084Z,6.30
2022-12-29T16:07:01.426Z,6.23
2022-12-29T16:09:34.927Z,6.18
2022-12-29T16:12:07.109Z,6.19
2022-12-29T16:14:43.293Z,6.18
2022-12-29T16:17:16.763Z,6.07
2022-12-29T16:19:52.894Z,6.16
2022-12-29T16:22:28.579Z,6.20
2022-12-29T16:25:04.842Z,6.30
2022-12-29T16:27:38.283Z,6.36
2022-12-29T16:30:12.073Z,6.44
2022-12-29T16:32:48.588Z,6.61
2022-12-29T16:35:22.022Z,6.63
2022-12-29T16:37:51.417Z,6.89
2022-12-29T16:40:31.023Z,7.07
2022-12-29T16:43:01.825Z,7.28
2022-12-29T16:46:07.815Z,7.47
2022-12-29T16:48:47.836Z,7.58
2022-12-29T16:51:21.160Z,7.60
2022-12-29T16:53:53.173Z,7.62
2022-12-29T16:56:25.008Z,7.62
2022-12-29T16:59:00.853Z,7.64
2022-12-29T17:01:30.159Z,7.70
2022-12-29T17:04:06.911Z,7.73
2022-12-29T17:06:35.147Z,7.72
2022-12-29T17:09:03.752Z,7.77
2022-12-29T17:11:58.413Z,7.61
2022-12-29T17:14:45.614Z,7.73
2022-12-29T17:17:19.425Z,7.75
2022-12-29T17:19:52.880Z,7.51
2022-12-29T17:22:25.192Z,7.66
2022-12-29T17:24:54.754Z,7.57
2022-12-29T17:27:28.669Z,7.53
2022-12-29T17:30:00.228Z,7.49
2022-12-29T17:32:30.318Z,7.52
2022-12-29T17:35:00.349Z,7.53
2022-12-29T17:37:34.768Z,7.56
2022-12-29T17:40:04.773Z,7.29
2022-12-29T17:42:36.944Z,7.51
2022-12-29T17:45:08.184Z,7.38
2022-12-29T17:47:37.561Z,7.45
2022-12-29T17:50:13.748Z,7.43
2022-12-29T17:52:43.353Z,7.27
2022-12-29T17:55:17.698Z,7.18
2022-12-29T17:57:47.388Z,7.23
2022-12-29T18:00:18.543Z,7.17
2022-12-29T18:02:49.192Z,7.19
2022-12-29T18:05:21.925Z,7.15
2022-12-29T18:07:52.312Z,7.10
2022-12-29T18:10:20.753Z,7.04
2022-12-29T18:12:52.090Z,7.00
2022-12-29T18:15:26.080Z,6.93
2022-12-29T18:17:59.552Z,6.87
2022-12-29T18:20:30.597Z,6.81
2022-12-29T18:22:59.938Z,6.82
2022-12-29T18:25:43.587Z,6.77
2022-12-29T18:28:12.183Z,6.76
2022-12-29T18:30:43.485Z,6.72
2022-12-29T18:33:21.952Z,6.80
2022-12-29T18:35:59.438Z,6.80
2022-12-29T18:38:27.705Z,6.86
2022-12-29T18:40:56.872Z,6.84
2022-12-29T18:43:25.475Z,6.76
2022-12-29T18:45:53.964Z,6.72
2022-12-29T18:48:23.164Z,6.70
2022-12-29T18:50:52.043Z,6.68
2022-12-29T18:53:26.135Z,6.64
2022-12-29T18:55:57.509Z,6.33
2022-12-29T18:58:32.272Z,6.72
2022-12-29T19:01:03.309Z,6.81
2022-12-29T19:03:32.479Z,6.93
2022-12-29T19:06:01.469Z,6.99
2022-12-29T19:08:30.996Z,7.06
2022-12-29T19:11:00.951Z,7.02
2022-12-29T19:13:30.035Z,7.00
2022-12-29T19:16:00.829Z,7.05
2022-12-29T19:18:43.685Z,6.97
2022-12-29T19:21:13.276Z,7.02
2022-12-29T19:23:45.235Z,6.96
2022-12-29T19:26:28.684Z,6.93
2022-12-29T19:28:57.699Z,6.83
2022-12-29T19:31:26.243Z,6.33
2022-12-29T19:33:56.063Z,6.59
2022-12-29T19:36:25.309Z,6.65
2022-12-29T19:38:55.298Z,6.59
2022-12-29T19:41:24.184Z,6.49
2022-12-29T19:43:54.294Z,6.40
2022-12-29T19:46:23.427Z,6.35
2022-12-29T19:48:52.489Z,6.25
2022-12-29T19:51:20.990Z,6.22
2022-12-29T19:53:50.621Z,6.20
2022-12-29T19:56:20.928Z,6.19
2022-12-29T19:58:50.417Z,6.29
2022-12-29T20:01:22.334Z,6.34
2022-12-29T20:03:53.064Z,6.35
2022-12-29T20:06:21.763Z,5.96
2022-12-29T20:08:49.893Z,6.35
2022-12-29T20:11:22.403Z,6.16
2022-12-29T20:13:50.500Z,6.47
2022-12-29T20:16:22.588Z,6.49
2022-12-29T20:18:50.765Z,6.40
2022-12-29T20:21:24.413Z,6.26
2022-12-29T20:23:54.940Z,6.18
2022-12-29T20:26:29.345Z,6.17
2022-12-29T20:29:00.137Z,6.13
2022-12-29T20:31:32.364Z,5.98
2022-12-29T20:34:01.103Z,5.99
2022-12-29T20:36:33.301Z,5.97
2022-12-29T20:39:03.565Z,5.94
2022-12-29T20:41:33.481Z,5.94
2022-12-29T20:44:01.739Z,5.88
2022-12-29T20:46:39.253Z,5.91
2022-12-29T20:49:11.676Z,5.88
2022-12-29T20:54:38.722Z,6.04
2022-12-29T20:57:09.214Z,6.09
2022-12-29T20:59:38.570Z,6.15
2022-12-29T21:02:08.313Z,6.14
2022-12-29T21:05:05.472Z,6.17
2022-12-29T21:07:28.614Z,6.11
2022-12-29T21:09:57.038Z,6.20
2022-12-29T21:12:26.846Z,6.27
2022-12-29T21:14:55.316Z,6.45
2022-12-29T21:17:26.289Z,6.38
2022-12-29T21:19:56.964Z,6.40
2022-12-29T21:22:25.376Z,6.31
2022-12-29T21:24:53.447Z,6.22
2022-12-29T21:27:22.898Z,6.20
2022-12-29T21:29:52.412Z,6.16
2022-12-29T21:32:21.044Z,6.13
2022-12-29T21:34:51.692Z,6.28
2022-12-29T21:37:23.856Z,6.41
2022-12-29T21:39:52.187Z,6.51
2022-12-29T21:42:20.757Z,6.56
2022-12-29T21:45:07.007Z,6.73
2022-12-29T21:47:50.798Z,6.82
2022-12-29T21:50:19.225Z,6.89
2022-12-29T21:52:48.029Z,6.96
2022-12-29T21:55:16.260Z,7.06
2022-12-29T21:58:02.416Z,7.11
2022-12-29T22:00:48.553Z,7.02
2022-12-29T22:03:37.163Z,7.16
2022-12-29T22:06:28.800Z,7.13
2022-12-29T22:09:18.028Z,7.11
2022-12-29T22:12:03.455Z,7.11
2022-12-29T22:14:32.554Z,7.09
2022-12-29T22:17:00.713Z,7.16
2022-12-29T22:19:30.885Z,7.16
2022-12-29T22:21:59.023Z,7.19
2022-12-29T22:24:27.429Z,7.35
2022-12-29T22:26:56.012Z,7.41
2022-12-29T22:29:24.476Z,7.36
2022-12-29T22:31:53.536Z,7.43
2022-12-29T22:34:22.035Z,7.49
2022-12-29T22:36:51.509Z,7.55
2022-12-29T22:39:23.118Z,7.55
2022-12-29T22:41:51.280Z,7.51
2022-12-29T22:44:19.680Z,7.49
2022-12-29T22:46:47.896Z,7.55
2022-12-29T22:49:16.370Z,7.48
2022-12-29T22:51:44.502Z,7.52
2022-12-29T22:54:16.719Z,7.46
2022-12-29T22:56:44.985Z,7.40
2022-12-29T22:59:17.990Z,7.46
2022-12-29T23:01:46.587Z,7.48
2022-12-29T23:04:59.354Z,7.53
2022-12-29T23:07:04.168Z,7.47
2022-12-29T23:09:34.002Z,7.50
2022-12-29T23:12:02.559Z,7.53
2022-12-29T23:14:31.345Z,7.57
2022-12-29T23:16:59.612Z,7.50
2022-12-29T23:19:29.367Z,7.38
2022-12-29T23:21:57.270Z,7.12
2022-12-29T23:24:27.361Z,6.87
2022-12-29T23:26:56.894Z,6.67
2022-12-29T23:29:25.624Z,6.55
2022-12-29T23:31:55.751Z,6.44
2022-12-29T23:34:24.355Z,6.31
2022-12-29T23:36:54.199Z,6.27
2022-12-29T23:39:25.123Z,6.20
2022-12-29T23:41:53.874Z,6.16
2022-12-29T23:44:25.097Z,6.10
2022-12-29T23:46:53.493Z,6.09
2022-12-29T23:49:23.329Z,6.05
2022-12-29T23:51:52.398Z,6.03
2022-12-29T23:54:20.914Z,5.98
2022-12-29T23:56:49.939Z,5.92
2022-12-29T23:59:18.502Z,5.98
